createdAt,value
2023-04-18T00:00:39.122Z,7.24
2023-04-18T00:05:50.151Z,7.21
2023-04-18T00:10:52.827Z,7.21
2023-04-18T00:15:55.366Z,7.20
2023-04-18T00:20:57.901Z,7.18
2023-04-18T00:26:00.983Z,7.16
2023-04-18T00:31:03.627Z,7.12
2023-04-18T00:36:06.550Z,7.07
2023-04-18T00:41:09.567Z,7.00
2023-04-18T00:46:12.073Z,6.93
2023-04-18T00:51:15.370Z,6.89
2023-04-18T00:56:17.955Z,6.87
2023-04-18T01:01:20.514Z,6.84
2023-04-18T01:06:23.640Z,6.82
2023-04-18T01:11:26.136Z,6.81
2023-04-18T01:16:29.750Z,6.77
2023-04-18T01:21:36.031Z,6.73
2023-04-18T01:26:38.655Z,6.70
2023-04-18T01:31:41.341Z,6.69
2023-04-18T01:36:44.224Z,6.70
2023-04-18T01:41:47.036Z,6.73
2023-04-18T01:46:49.545Z,6.74
2023-04-18T01:51:52.134Z,6.76
2023-04-18T01:56:54.599Z,6.80
2023-04-18T02:01:58.047Z,6.81
2023-04-18T02:07:00.683Z,6.79
2023-04-18T02:12:03.281Z,6.79
2023-04-18T02:17:05.901Z,6.78
2023-04-18T02:22:08.419Z,6.77
2023-04-18T02:27:11.754Z,6.75
2023-04-18T02:32:17.225Z,6.75
2023-04-18T02:37:19.701Z,6.76
2023-04-18T02:42:22.179Z,6.77
2023-04-18T02:47:25.915Z,6.77
2023-04-18T02:52:29.133Z,6.76
2023-04-18T02:57:31.603Z,6.77
2023-04-18T03:02:34.345Z,6.80
2023-04-18T03:07:37.014Z,6.79
2023-04-18T03:12:39.752Z,6.77
2023-04-18T03:17:42.360Z,6.75
2023-04-18T03:22:44.913Z,6.72
2023-04-18T03:27:47.661Z,6.71
2023-04-18T03:32:50.158Z,6.69
2023-04-18T03:37:52.640Z,6.67
2023-04-18T03:42:55.119Z,6.65
2023-04-18T03:47:57.667Z,6.64
2023-04-18T03:53:00.862Z,6.64
2023-04-18T03:58:03.408Z,6.64
2023-04-18T04:03:07.148Z,6.67
2023-04-18T04:08:09.874Z,6.73
2023-04-18T04:13:12.338Z,6.82
2023-04-18T04:18:14.796Z,6.91
2023-04-18T04:23:17.268Z,6.98
2023-04-18T04:28:24.512Z,7.07
2023-04-18T04:33:33.097Z,7.19
2023-04-18T04:38:38.324Z,7.36
2023-04-18T04:43:41.206Z,7.62
2023-04-18T04:48:43.832Z,7.93
2023-04-18T04:53:46.811Z,8.23
2023-04-18T04:58:50.012Z,8.42
2023-04-18T05:03:53.282Z,8.58
2023-04-18T05:08:57.432Z,8.66
2023-04-18T05:13:59.860Z,8.75
2023-04-18T05:19:02.305Z,8.88
2023-04-18T05:24:04.840Z,9.00
2023-04-18T05:29:07.294Z,9.21
2023-04-18T05:34:09.850Z,9.34
2023-04-18T05:39:12.337Z,9.47
2023-04-18T05:44:16.067Z,9.74
2023-04-18T05:49:19.319Z,10.16
2023-04-18T05:54:22.063Z,10.47
2023-04-18T05:59:26.646Z,10.89
2023-04-18T06:04:29.995Z,11.39
2023-04-18T06:09:32.620Z,11.72
2023-04-18T06:14:35.317Z,12.24
2023-04-18T06:19:38.406Z,14.46
2023-04-18T06:24:41.160Z,17.24
2023-04-18T06:29:43.824Z,19.35
2023-04-18T06:34:46.345Z,20.13
2023-04-18T06:39:48.915Z,19.74
2023-04-18T06:44:51.479Z,20.40
2023-04-18T06:49:54.019Z,22.31
2023-04-18T06:54:56.694Z,24.24
2023-04-18T06:59:59.168Z,25.56
2023-04-18T07:05:01.847Z,26.46
2023-04-18T07:10:06.456Z,26.67
2023-04-18T07:15:09.723Z,26.30
2023-04-18T07:20:14.331Z,26.26
2023-04-18T07:25:17.050Z,26.47
2023-04-18T07:30:19.562Z,26.60
2023-04-18T07:35:22.132Z,26.73
2023-04-18T07:40:25.288Z,27.03
2023-04-18T07:45:27.759Z,27.10
2023-04-18T07:50:30.499Z,26.78
2023-04-18T07:55:33.159Z,26.70
2023-04-18T08:00:39.213Z,26.29
2023-04-18T08:05:42.843Z,25.66
2023-04-18T08:10:45.939Z,25.40
2023-04-18T08:15:48.558Z,25.26
2023-04-18T08:20:51.021Z,24.55
2023-04-18T08:25:53.474Z,24.37
2023-04-18T08:30:56.546Z,23.74
2023-04-18T08:35:59.150Z,22.65
2023-04-18T08:41:01.724Z,21.66
2023-04-18T08:46:04.671Z,21.21
2023-04-18T08:51:07.262Z,21.08
2023-04-18T08:56:10.694Z,20.74
2023-04-18T09:01:13.677Z,20.07
2023-04-18T09:06:19.164Z,19.82
2023-04-18T09:11:28.807Z,19.89
2023-04-18T09:16:47.073Z,19.91
2023-04-18T09:22:00.846Z,19.55
2023-04-18T10:01:30.863Z,19.00
2023-04-18T10:06:35.016Z,18.51
2023-04-18T10:11:37.989Z,18.23
2023-04-18T10:16:42.423Z,18.09
2023-04-18T10:21:54.366Z,18.05
2023-04-18T10:26:57.837Z,18.07
2023-04-18T10:32:06.047Z,18.18
2023-04-18T10:37:08.663Z,18.55
2023-04-18T10:42:11.172Z,18.84
2023-04-18T10:47:16.659Z,18.60
2023-04-18T10:52:19.229Z,18.04
2023-04-18T10:57:21.916Z,17.85
2023-04-18T11:02:33.315Z,18.08
2023-04-18T11:07:44.999Z,18.01
2023-04-18T11:12:47.970Z,17.86
2023-04-18T11:18:06.683Z,18.09
2023-04-18T11:23:18.104Z,18.56
2023-04-18T11:28:21.947Z,18.95
2023-04-18T11:33:28.218Z,19.14
2023-04-18T11:38:31.042Z,18.93
2023-04-18T11:43:33.593Z,18.72
2023-04-18T11:48:40.536Z,19.01
2023-04-18T11:53:42.978Z,19.32
2023-04-18T11:58:45.502Z,18.98
2023-04-18T12:04:16.702Z,18.73
2023-04-18T12:09:22.240Z,18.99
2023-04-18T12:14:24.861Z,19.31
2023-04-18T12:19:27.998Z,19.33
2023-04-18T12:24:32.282Z,19.41
2023-04-18T12:29:35.151Z,19.46
2023-04-18T12:34:37.628Z,19.34
2023-04-18T12:39:40.204Z,19.07
2023-04-18T12:44:42.717Z,18.83
2023-04-18T12:49:45.381Z,18.76
2023-04-18T12:54:47.903Z,18.69
2023-04-18T12:59:50.469Z,18.39
2023-04-18T13:04:52.979Z,18.20
2023-04-18T13:09:55.776Z,18.52
2023-04-18T13:14:59.513Z,18.82
2023-04-18T13:20:04.792Z,18.59
2023-04-18T13:25:10.307Z,18.23
2023-04-18T13:30:13.352Z,17.90
2023-04-18T13:35:16.243Z,17.73
2023-04-18T13:40:18.813Z,17.62
2023-04-18T13:45:21.916Z,17.50
2023-04-18T13:50:25.588Z,17.22
2023-04-18T13:55:28.836Z,16.88
2023-04-18T14:00:31.720Z,16.59
2023-04-18T14:05:35.428Z,16.45
2023-04-18T14:10:40.315Z,16.38
2023-04-18T14:15:43.425Z,16.41
2023-04-18T14:20:46.978Z,16.52
2023-04-18T14:25:49.545Z,16.60
2023-04-18T14:30:55.205Z,16.69
2023-04-18T14:35:57.749Z,16.70
2023-04-18T14:41:01.151Z,16.61
2023-04-18T14:46:03.718Z,16.32
2023-04-18T14:51:07.979Z,16.01
2023-04-18T14:56:10.528Z,15.73
2023-04-18T15:01:17.052Z,15.49
2023-04-18T15:06:19.624Z,15.31
2023-04-18T15:11:23.110Z,15.15
2023-04-18T15:16:26.547Z,14.95
2023-04-18T15:21:29.168Z,14.69
2023-04-18T15:26:33.261Z,14.43
2023-04-18T15:31:38.425Z,14.17
2023-04-18T15:36:41.650Z,14.02
2023-04-18T15:41:44.669Z,13.98
2023-04-18T15:46:48.953Z,13.99
2023-04-18T15:51:51.530Z,14.00
2023-04-18T15:56:54.000Z,13.99
2023-04-18T16:01:56.875Z,13.97
2023-04-18T16:06:59.610Z,13.88
2023-04-18T16:12:03.206Z,13.84
2023-04-18T16:17:05.961Z,13.80
2023-04-18T16:22:10.446Z,13.75
2023-04-18T16:27:13.118Z,13.72
2023-04-18T16:32:15.726Z,13.65
2023-04-18T16:37:18.495Z,13.50
2023-04-18T16:42:21.426Z,13.33
2023-04-18T16:47:24.306Z,13.16
2023-04-18T16:52:26.866Z,13.04
2023-04-18T16:57:29.433Z,13.01
2023-04-18T17:02:33.392Z,12.97
2023-04-18T17:07:36.755Z,12.86
2023-04-18T17:12:39.344Z,12.76
2023-04-18T17:17:42.071Z,12.70
2023-04-18T17:22:53.235Z,12.65
2023-04-18T17:27:57.213Z,12.59
2023-04-18T17:32:59.810Z,12.53
2023-04-18T17:38:02.574Z,12.46
2023-04-18T17:43:07.698Z,12.34
2023-04-18T17:48:10.439Z,12.27
2023-04-18T17:53:13.391Z,12.18
2023-04-18T17:58:16.860Z,12.08
2023-04-18T18:03:20.084Z,11.97
2023-04-18T18:08:23.083Z,11.81
2023-04-18T18:13:25.712Z,11.68
2023-04-18T18:18:31.463Z,11.60
2023-04-18T18:23:34.828Z,11.49
2023-04-18T18:28:38.195Z,11.40
2023-04-18T18:33:43.997Z,11.32
2023-04-18T18:38:47.119Z,11.21
2023-04-18T18:43:50.573Z,11.12
2023-04-18T18:48:53.385Z,11.02
2023-04-18T18:53:57.072Z,10.91
2023-04-18T18:58:59.551Z,10.77
2023-04-18T19:04:03.649Z,10.63
2023-04-18T19:09:07.047Z,10.50
2023-04-18T19:14:10.411Z,10.43
2023-04-18T19:19:13.593Z,10.39
2023-04-18T19:24:17.269Z,10.37
2023-04-18T19:29:22.320Z,10.32
2023-04-18T19:34:25.226Z,10.21
2023-04-18T19:39:28.079Z,10.11
2023-04-18T19:44:31.202Z,9.98
2023-04-18T19:49:34.019Z,9.83
2023-04-18T19:54:36.746Z,9.67
2023-04-18T19:59:39.223Z,9.53
2023-04-18T20:04:43.872Z,9.33
2023-04-18T20:09:48.826Z,9.08
2023-04-18T20:14:52.229Z,8.85
2023-04-18T20:19:57.074Z,8.60
2023-04-18T20:25:00.901Z,8.37
2023-04-18T20:30:05.011Z,8.20
2023-04-18T20:35:08.550Z,8.06
2023-04-18T20:40:11.500Z,7.98
2023-04-18T20:45:14.090Z,7.99
2023-04-18T20:50:18.222Z,8.01
2023-04-18T20:55:21.286Z,7.84
2023-04-18T21:00:24.095Z,7.62
2023-04-18T21:05:26.660Z,7.46
2023-04-18T21:10:29.223Z,7.35
2023-04-18T21:15:32.411Z,7.28
2023-04-18T21:20:36.539Z,7.22
2023-04-18T21:25:39.048Z,7.15
2023-04-18T21:30:41.619Z,7.09
2023-04-18T21:35:44.148Z,7.11
2023-04-18T21:40:46.618Z,7.15
2023-04-18T21:45:49.101Z,7.22
2023-04-18T21:50:57.636Z,7.26
2023-04-18T21:56:00.820Z,7.28
2023-04-18T22:01:03.513Z,7.22
2023-04-18T22:06:06.235Z,7.07
2023-04-18T22:11:12.332Z,6.90
2023-04-18T22:16:15.232Z,6.72
2023-04-18T22:21:17.835Z,6.64
2023-04-18T22:26:20.610Z,6.59
2023-04-18T22:31:23.222Z,6.54
2023-04-18T22:36:27.463Z,6.46
2023-04-18T22:41:29.973Z,6.36
2023-04-18T22:46:33.006Z,6.30
2023-04-18T22:51:35.605Z,6.28
2023-04-18T22:56:38.081Z,6.22
2023-04-18T23:01:41.350Z,6.14
2023-04-18T23:06:44.303Z,6.01
2023-04-18T23:11:46.779Z,5.92
2023-04-18T23:16:49.464Z,5.88
2023-04-18T23:21:52.882Z,5.94
2023-04-18T23:26:55.373Z,6.06
2023-04-18T23:31:57.993Z,6.12
2023-04-18T23:37:00.807Z,6.08
2023-04-18T23:42:03.307Z,5.99
2023-04-18T23:47:06.235Z,5.92
2023-04-18T23:52:08.779Z,5.88
2023-04-18T23:57:11.232Z,5.79
